Indianapolis, Indiana
Traffic Map
Current Weather Conditions
Indianapolis, Indiana
Scattered Clouds
Scattered Clouds
26°
Feels Like: 28°
Wind Chill: 26° Ceiling: Unl
Heat Index: 28° Visibility: 10mi
Dew Point: 21° Wind: 10mph
Humidity: 72% Direction: 210° (SSW)
Pressure: 29.88in Gusts: 0mph
Raw Report DataKIND 261654Z 21009KT 10SM FEW020 SCT250 26/21 A2988 RMK AO2 SLP112 T02610206 $
Traffic Incident Summary
Active as of:
Severity:
Category:
InformationThere was an issue retrieving the traffic information for this location. Please try a different location or try again shortly.
Advertisements
Track Severe Weather on mobile